createdAt,value
2018-09-05T00:09:17.301Z,22.6
2018-09-05T00:26:07.107Z,22.2
2018-09-05T00:42:57.018Z,22.2
2018-09-05T00:59:47.404Z,22.2
2018-09-05T01:16:36.509Z,22.2
2018-09-05T01:33:26.281Z,22.2
2018-09-05T01:50:15.854Z,22.2
2018-09-05T02:07:05.269Z,22.2
2018-09-05T02:23:54.807Z,21.9
2018-09-05T02:40:44.557Z,21.9
2018-09-05T02:57:33.537Z,21.9
2018-09-05T03:14:22.653Z,21.9
2018-09-05T03:31:11.818Z,21.6
2018-09-05T03:48:00.692Z,21.6
2018-09-05T04:04:49.807Z,21.6
2018-09-05T04:21:38.820Z,21.6
2018-09-05T04:38:27.841Z,21.6
2018-09-05T04:55:16.885Z,21.6
2018-09-05T05:12:05.663Z,21.6
2018-09-05T05:28:54.502Z,21.3
2018-09-05T05:45:43.277Z,21.3
2018-09-05T06:02:32.090Z,21.6
2018-09-05T06:19:20.665Z,21.6
2018-09-05T06:36:09.798Z,21.9
2018-09-05T06:52:59.655Z,21.9
2018-09-05T07:09:50.353Z,21.9
2018-09-05T07:26:38.764Z,22.2
2018-09-05T07:43:28.401Z,22.2
2018-09-05T08:00:18.249Z,22.2
2018-09-05T08:17:08.257Z,22.6
2018-09-05T08:33:58.236Z,22.9
2018-09-05T08:50:48.963Z,22.9
2018-09-05T09:07:40.069Z,22.9
2018-09-05T09:24:30.154Z,23.2
2018-09-05T09:41:20.842Z,23.2
2018-09-05T09:58:12.021Z,23.5
2018-09-05T10:15:03.539Z,23.8
2018-09-05T10:31:55.263Z,24.2
2018-09-05T10:48:47.149Z,24.5
2018-09-05T11:05:39.632Z,24.5
2018-09-05T11:22:32.029Z,24.8
2018-09-05T11:39:24.714Z,24.8
2018-09-05T11:51:13.723Z,24.8
2018-09-05T12:08:06.534Z,25.1
2018-09-05T12:24:59.639Z,25.1
2018-09-05T12:41:53.624Z,25.4
2018-09-05T12:55:23.653Z,25.8
2018-09-05T13:12:17.300Z,25.4
2018-09-05T13:29:10.745Z,25.4
2018-09-05T13:46:04.159Z,25.4
2018-09-05T14:02:59.179Z,25.8
2018-09-05T14:19:51.587Z,25.4
2018-09-05T14:36:45.108Z,25.4
2018-09-05T14:53:38.423Z,25.4
2018-09-05T15:03:46.572Z,25.4
2018-09-05T15:15:35.876Z,25.4
2018-09-05T15:32:29.407Z,25.4
2018-09-05T15:49:22.632Z,25.1
2018-09-05T15:59:30.587Z,25.1
2018-09-05T16:04:34.590Z,25.1
2018-09-05T16:21:28.575Z,25.1
2018-09-05T16:38:20.723Z,25.1
2018-09-05T16:55:13.646Z,24.8
2018-09-05T17:12:06.673Z,24.8
2018-09-05T17:28:59.448Z,24.5
2018-09-05T17:45:52.054Z,24.5
2018-09-05T18:02:44.378Z,24.2
2018-09-05T18:19:36.382Z,23.8
2018-09-05T18:36:28.112Z,23.5
2018-09-05T18:53:19.520Z,23.2
2018-09-05T19:10:10.578Z,23.2
2018-09-05T19:27:01.479Z,22.9
2018-09-05T19:43:52.427Z,22.9
2018-09-05T20:00:43.308Z,22.6
2018-09-05T20:17:33.278Z,22.6
2018-09-05T20:34:23.174Z,22.9
2018-09-05T20:51:13.183Z,22.9
2018-09-05T21:08:03.463Z,22.9
2018-09-05T21:24:53.730Z,22.9
2018-09-05T21:41:43.725Z,22.9
2018-09-05T21:58:33.856Z,22.9
2018-09-05T22:15:24.565Z,22.9
2018-09-05T22:32:14.246Z,22.6
2018-09-05T22:49:04.107Z,22.6
2018-09-05T23:05:53.852Z,22.6
2018-09-05T23:22:43.829Z,22.6
2018-09-05T23:39:33.817Z,22.6
2018-09-05T23:56:23.649Z,22.6
